createdAt,value
2023-04-19T00:01:41.457Z,99243.52
2023-04-19T00:04:08.377Z,99243.39
2023-04-19T00:06:35.938Z,99243.85
2023-04-19T00:09:02.753Z,99243.17
2023-04-19T00:11:29.633Z,99243.82
2023-04-19T00:13:56.250Z,99243.16
2023-04-19T00:16:22.898Z,99239.51
2023-04-19T00:18:50.194Z,99241.16
2023-04-19T00:21:16.807Z,99241.20
2023-04-19T00:23:43.649Z,99237.33
2023-04-19T00:26:11.135Z,99233.77
2023-04-19T00:28:38.156Z,99234.13
2023-04-19T00:31:04.995Z,99231.63
2023-04-19T00:33:32.590Z,99228.91
2023-04-19T00:35:59.193Z,99226.98
2023-04-19T00:38:25.770Z,99227.80
2023-04-19T00:40:52.424Z,99223.58
2023-04-19T00:43:19.616Z,99220.50
2023-04-19T00:45:46.273Z,99217.41
2023-04-19T00:48:13.321Z,99216.97
2023-04-19T00:50:41.029Z,99220.89
2023-04-19T00:53:07.643Z,99215.08
2023-04-19T00:55:34.474Z,99214.50
2023-04-19T00:58:01.317Z,99219.23
2023-04-19T01:00:28.094Z,99216.18
2023-04-19T01:02:55.353Z,99213.98
2023-04-19T01:05:22.890Z,99208.02
2023-04-19T01:07:50.914Z,99207.62
2023-04-19T01:10:18.083Z,99202.54
2023-04-19T01:12:45.248Z,99201.85
2023-04-19T01:15:11.813Z,99202.52
2023-04-19T01:17:38.628Z,99202.31
2023-04-19T01:20:07.446Z,99200.07
2023-04-19T01:22:37.218Z,99198.83
2023-04-19T01:25:05.989Z,99194.64
2023-04-19T01:27:32.774Z,99196.11
2023-04-19T01:29:59.411Z,99195.08
2023-04-19T01:32:27.127Z,99192.36
2023-04-19T01:34:55.911Z,99192.63
2023-04-19T01:37:22.679Z,99190.91
2023-04-19T01:39:49.773Z,99189.11
2023-04-19T01:42:16.461Z,99188.00
2023-04-19T01:44:43.082Z,99187.30
2023-04-19T01:47:09.762Z,99188.29
2023-04-19T01:49:36.536Z,99187.46
2023-04-19T01:52:03.299Z,99184.30
2023-04-19T01:54:30.415Z,99182.93
2023-04-19T01:56:57.971Z,99183.58
2023-04-19T01:59:25.342Z,99185.08
2023-04-19T02:01:52.034Z,99186.19
2023-04-19T02:04:20.064Z,99185.27
2023-04-19T02:06:46.957Z,99182.02
2023-04-19T02:09:13.582Z,99174.52
2023-04-19T02:11:42.115Z,99173.23
2023-04-19T02:14:08.966Z,99171.95
2023-04-19T02:16:36.467Z,99173.52
2023-04-19T02:19:04.052Z,99173.77
2023-04-19T02:21:31.369Z,99176.14
2023-04-19T02:23:58.106Z,99170.45
2023-04-19T02:26:24.873Z,99170.31
2023-04-19T02:28:52.406Z,99171.94
2023-04-19T02:31:19.121Z,99168.73
2023-04-19T02:33:46.214Z,99170.85
2023-04-19T02:36:12.864Z,99172.27
2023-04-19T02:38:40.137Z,99170.19
2023-04-19T02:41:06.820Z,99173.83
2023-04-19T02:43:33.783Z,99170.93
2023-04-19T02:46:01.219Z,99177.02
2023-04-19T02:48:28.000Z,99176.63
2023-04-19T02:50:56.462Z,99172.08
2023-04-19T02:53:23.515Z,99177.73
2023-04-19T02:55:50.500Z,99177.20
2023-04-19T02:58:19.480Z,99185.30
2023-04-19T03:01:00.181Z,99184.33
2023-04-19T03:03:27.141Z,99182.02
2023-04-19T03:05:54.311Z,99178.34
2023-04-19T03:08:21.873Z,99176.41
2023-04-19T03:10:49.611Z,99177.72
2023-04-19T03:13:16.220Z,99175.55
2023-04-19T03:15:42.942Z,99175.70
2023-04-19T03:18:10.005Z,99168.79
2023-04-19T03:20:36.929Z,99167.25
2023-04-19T03:23:03.751Z,99165.89
2023-04-19T03:25:32.706Z,99165.35
2023-04-19T03:28:09.262Z,99162.48
2023-04-19T03:30:53.573Z,99158.71
2023-04-19T03:33:20.472Z,99159.38
2023-04-19T03:35:47.613Z,99160.53
2023-04-19T03:38:15.574Z,99158.73
2023-04-19T03:40:42.905Z,99153.75
2023-04-19T03:43:09.887Z,99155.92
2023-04-19T03:45:36.508Z,99157.98
2023-04-19T03:48:03.591Z,99159.34
2023-04-19T03:50:30.715Z,99155.19
2023-04-19T03:52:57.554Z,99160.02
2023-04-19T03:55:24.926Z,99161.19
2023-04-19T03:57:52.142Z,99161.02
2023-04-19T04:00:24.264Z,99163.67
2023-04-19T04:02:54.324Z,99159.78
2023-04-19T04:05:21.367Z,99156.34
2023-04-19T04:07:48.137Z,99157.40
2023-04-19T04:10:15.029Z,99157.34
2023-04-19T04:12:42.887Z,99161.10
2023-04-19T04:15:11.178Z,99158.30
2023-04-19T04:17:41.754Z,99157.13
2023-04-19T04:20:09.325Z,99155.45
2023-04-19T04:22:36.957Z,99149.55
2023-04-19T04:25:04.244Z,99149.66
2023-04-19T04:27:37.365Z,99157.66
2023-04-19T04:30:06.022Z,99156.06
2023-04-19T04:32:35.969Z,99158.34
2023-04-19T04:35:04.641Z,99154.77
2023-04-19T04:37:49.672Z,99157.89
2023-04-19T04:40:16.385Z,99155.88
2023-04-19T04:42:44.898Z,99155.38
2023-04-19T04:45:12.472Z,99158.64
2023-04-19T04:47:39.881Z,99158.81
2023-04-19T04:50:07.506Z,99163.23
2023-04-19T04:52:34.234Z,99159.91
2023-04-19T04:55:07.116Z,99167.57
2023-04-19T04:57:35.876Z,99164.44
2023-04-19T05:00:06.028Z,99166.68
2023-04-19T05:02:37.455Z,99167.75
2023-04-19T05:05:05.128Z,99167.10
2023-04-19T05:07:32.821Z,99169.69
2023-04-19T05:10:01.682Z,99173.52
2023-04-19T05:12:33.534Z,99170.72
2023-04-19T05:15:00.600Z,99165.65
2023-04-19T05:17:28.148Z,99167.21
2023-04-19T05:19:54.837Z,99165.72
2023-04-19T05:22:21.907Z,99168.51
2023-04-19T05:24:49.820Z,99168.08
2023-04-19T05:27:16.708Z,99167.19
2023-04-19T05:29:44.075Z,99169.70
2023-04-19T05:32:11.094Z,99166.87
2023-04-19T05:34:44.604Z,99161.30
2023-04-19T05:37:12.696Z,99166.64
2023-04-19T05:39:41.037Z,99161.27
2023-04-19T05:42:09.154Z,99163.65
2023-04-19T05:44:36.239Z,99158.48
2023-04-19T05:47:03.083Z,99158.45
2023-04-19T05:50:05.741Z,99161.90
2023-04-19T05:52:37.486Z,99161.68
2023-04-19T05:55:05.386Z,99161.31
2023-04-19T05:57:33.197Z,99161.45
2023-04-19T06:02:44.167Z,99164.38
2023-04-19T06:05:12.843Z,99160.70
2023-04-19T06:07:43.228Z,99166.55
2023-04-19T06:10:13.872Z,99159.50
2023-04-19T06:12:41.617Z,99161.72
2023-04-19T06:15:08.855Z,99158.66
2023-04-19T06:17:36.703Z,99157.17
2023-04-19T06:20:06.479Z,99155.33
2023-04-19T06:22:33.489Z,99157.44
2023-04-19T06:25:00.817Z,99154.48
2023-04-19T06:27:27.495Z,99151.38
2023-04-19T06:29:54.759Z,99150.19
2023-04-19T06:32:21.602Z,99157.19
2023-04-19T06:34:48.425Z,99157.42
2023-04-19T06:37:15.159Z,99152.40
2023-04-19T06:39:42.186Z,99153.09
2023-04-19T06:42:09.162Z,99150.17
2023-04-19T06:44:38.813Z,99151.40
2023-04-19T06:47:07.178Z,99149.36
2023-04-19T06:49:34.521Z,99147.92
2023-04-19T06:52:01.352Z,99147.94
2023-04-19T06:54:28.517Z,99145.84
2023-04-19T06:56:56.832Z,99141.81
2023-04-19T06:59:29.600Z,99146.05
2023-04-19T07:01:58.266Z,99139.29
2023-04-19T07:04:34.580Z,99142.05
2023-04-19T07:07:01.637Z,99145.95
2023-04-19T07:09:28.681Z,99145.18
2023-04-19T07:11:55.461Z,99144.91
2023-04-19T07:14:23.318Z,99142.56
2023-04-19T07:16:50.976Z,99137.18
2023-04-19T07:19:20.105Z,99140.99
2023-04-19T07:21:47.030Z,99139.24
2023-04-19T07:24:14.111Z,99139.90
2023-04-19T07:26:41.122Z,99143.77
2023-04-19T07:29:08.811Z,99140.70
2023-04-19T07:31:36.368Z,99140.90
2023-04-19T07:34:03.644Z,99140.25
2023-04-19T07:36:31.200Z,99140.06
2023-04-19T07:38:58.090Z,99140.40
2023-04-19T07:41:25.074Z,99138.05
2023-04-19T07:43:52.061Z,99143.65
2023-04-19T07:46:18.971Z,99142.44
2023-04-19T07:48:46.030Z,99141.08
2023-04-19T07:51:16.553Z,99146.10
2023-04-19T07:53:43.480Z,99141.90
2023-04-19T07:56:12.747Z,99142.08
2023-04-19T07:58:40.775Z,99133.07
2023-04-19T08:01:07.533Z,99136.35
2023-04-19T08:03:35.787Z,99129.44
2023-04-19T08:06:08.307Z,99124.24
2023-04-19T08:08:36.216Z,99128.45
2023-04-19T08:11:04.747Z,99133.57
2023-04-19T08:13:31.936Z,99131.14
2023-04-19T08:18:28.716Z,99136.00
2023-04-19T08:20:56.553Z,99139.04
2023-04-19T08:23:29.481Z,99138.85
2023-04-19T08:26:02.183Z,99130.36
2023-04-19T08:28:31.926Z,99131.70
2023-04-19T08:31:00.810Z,99129.14
2023-04-19T08:33:28.366Z,99124.50
2023-04-19T08:35:55.391Z,99120.79
2023-04-19T08:38:22.464Z,99118.86
2023-04-19T08:40:53.232Z,99114.75
2023-04-19T08:43:20.612Z,99115.40
2023-04-19T08:45:49.622Z,99115.50
2023-04-19T08:48:17.358Z,99110.48
2023-04-19T08:51:03.561Z,99106.29
2023-04-19T08:53:35.456Z,99103.84
2023-04-19T09:01:06.489Z,99103.52
2023-04-19T09:03:44.014Z,99106.15
2023-04-19T09:06:18.608Z,99107.43
2023-04-19T09:08:45.579Z,99102.48
2023-04-19T09:11:12.595Z,99088.09
2023-04-19T09:13:43.464Z,99092.73
2023-04-19T09:16:24.354Z,99100.24
2023-04-19T09:19:08.146Z,99099.85
2023-04-19T09:21:42.295Z,99104.41
2023-04-19T09:24:09.246Z,99111.86
2023-04-19T09:26:36.144Z,99114.05
2023-04-19T09:29:06.478Z,99116.29
2023-04-19T09:31:51.064Z,99112.64
2023-04-19T09:34:18.833Z,99113.22
2023-04-19T09:36:46.622Z,99110.11
2023-04-19T09:39:14.111Z,99105.98
2023-04-19T09:41:52.089Z,99106.20
2023-04-19T09:46:53.154Z,99103.89
2023-04-19T09:49:33.470Z,99092.90
2023-04-19T09:52:04.184Z,99099.55
2023-04-19T09:54:32.096Z,99100.01
2023-04-19T09:57:01.322Z,99098.68
2023-04-19T09:59:28.823Z,99094.63
2023-04-19T10:01:55.877Z,99092.29
2023-04-19T10:04:33.293Z,99089.55
2023-04-19T10:07:29.064Z,99094.27
2023-04-19T10:10:04.936Z,99098.87
2023-04-19T10:12:59.147Z,99104.71
2023-04-19T10:15:29.487Z,99098.09
2023-04-19T10:18:00.891Z,99098.58
2023-04-19T10:20:39.408Z,99094.89
2023-04-19T10:23:09.182Z,99096.68
2023-04-19T10:25:36.661Z,99091.98
2023-04-19T10:28:03.523Z,99096.91
2023-04-19T10:30:30.750Z,99100.10
2023-04-19T10:33:02.453Z,99101.93
2023-04-19T10:35:37.015Z,99097.25
2023-04-19T10:38:03.854Z,99103.94
2023-04-19T10:41:03.395Z,99107.88
2023-04-19T10:43:31.180Z,99110.81
2023-04-19T10:46:08.886Z,99111.95
2023-04-19T10:48:43.142Z,99113.31
2023-04-19T10:51:18.905Z,99113.00
2023-04-19T10:53:48.945Z,99110.95
2023-04-19T10:56:36.069Z,99113.94
2023-04-19T10:59:10.637Z,99111.47
2023-04-19T11:01:43.750Z,99114.54
2023-04-19T11:04:11.550Z,99112.95
2023-04-19T11:06:55.676Z,99113.65
2023-04-19T11:09:28.221Z,99117.41
2023-04-19T11:12:02.236Z,99122.57
2023-04-19T11:14:31.537Z,99120.23
2023-04-19T11:16:59.396Z,99121.41
2023-04-19T11:19:26.509Z,99127.52
2023-04-19T11:21:53.404Z,99123.15
2023-04-19T11:24:20.467Z,99124.05
2023-04-19T11:26:50.806Z,99121.63
2023-04-19T11:29:19.721Z,99128.41
2023-04-19T11:31:46.574Z,99134.43
2023-04-19T11:34:13.964Z,99134.27
2023-04-19T11:36:50.575Z,99138.25
2023-04-19T11:39:18.185Z,99139.85
2023-04-19T11:41:47.229Z,99142.77
2023-04-19T11:44:19.778Z,99137.96
2023-04-19T11:47:04.504Z,99140.16
2023-04-19T11:49:32.671Z,99142.45
2023-04-19T11:52:00.392Z,99137.05
2023-04-19T11:54:27.538Z,99134.39
2023-04-19T11:57:04.202Z,99133.75
2023-04-19T11:59:32.112Z,99135.41
2023-04-19T12:02:17.501Z,99137.20
2023-04-19T12:04:44.324Z,99136.17
2023-04-19T12:07:11.555Z,99133.84
2023-04-19T12:09:38.764Z,99132.24
2023-04-19T12:12:06.274Z,99137.48
2023-04-19T12:14:33.745Z,99137.97
2023-04-19T12:17:04.845Z,99145.50
2023-04-19T12:19:36.525Z,99141.64
2023-04-19T12:22:17.023Z,99141.11
2023-04-19T12:24:43.962Z,99141.53
2023-04-19T12:27:11.244Z,99135.00
2023-04-19T12:29:38.571Z,99139.46
2023-04-19T12:32:05.675Z,99137.74
2023-04-19T12:34:32.749Z,99141.58
2023-04-19T12:36:59.652Z,99145.54
2023-04-19T12:39:27.665Z,99150.23
2023-04-19T12:41:54.291Z,99148.56
2023-04-19T12:44:21.190Z,99153.98
2023-04-19T12:46:48.032Z,99160.34
2023-04-19T12:49:17.728Z,99159.29
2023-04-19T12:51:46.922Z,99162.53
2023-04-19T12:54:14.834Z,99164.25
2023-04-19T12:56:41.528Z,99159.00
2023-04-19T12:59:08.229Z,99159.98
2023-04-19T13:01:35.257Z,99158.48
2023-04-19T13:04:02.515Z,99164.21
2023-04-19T13:06:30.740Z,99163.83
2023-04-19T13:09:00.927Z,99160.10
2023-04-19T13:11:28.255Z,99158.79
2023-04-19T13:13:55.223Z,99161.25
2023-04-19T13:16:22.671Z,99163.17
2023-04-19T13:18:50.375Z,99159.87
2023-04-19T13:21:17.476Z,99161.39
2023-04-19T13:23:44.542Z,99159.20
2023-04-19T13:26:11.443Z,99157.00
2023-04-19T13:28:39.296Z,99155.05
2023-04-19T13:31:06.044Z,99156.45
2023-04-19T13:33:33.593Z,99159.98
2023-04-19T13:36:00.905Z,99162.43
2023-04-19T13:38:28.186Z,99162.53
2023-04-19T13:40:55.599Z,99161.05
2023-04-19T13:43:22.591Z,99157.48
2023-04-19T13:45:49.267Z,99159.80
2023-04-19T13:48:16.197Z,99156.85
2023-04-19T13:50:42.984Z,99164.65
2023-04-19T13:53:10.045Z,99164.42
2023-04-19T13:55:36.701Z,99163.62
2023-04-19T13:58:03.408Z,99168.10
2023-04-19T14:00:30.350Z,99168.45
2023-04-19T14:02:57.497Z,99171.33
2023-04-19T14:05:24.405Z,99170.88
2023-04-19T14:07:51.891Z,99168.58
2023-04-19T14:10:19.059Z,99172.92
2023-04-19T14:12:46.653Z,99172.11
2023-04-19T14:15:13.295Z,99172.96
2023-04-19T14:17:40.420Z,99174.38
2023-04-19T14:20:07.897Z,99172.98
2023-04-19T14:22:35.716Z,99175.67
2023-04-19T14:25:03.589Z,99180.92
2023-04-19T14:27:30.474Z,99180.83
2023-04-19T14:29:57.120Z,99179.52
2023-04-19T14:32:26.743Z,99183.99
2023-04-19T14:34:55.272Z,99177.23
2023-04-19T14:37:22.804Z,99180.54
2023-04-19T14:39:49.403Z,99182.02
2023-04-19T14:42:16.170Z,99184.68
2023-04-19T14:44:45.774Z,99183.16
2023-04-19T14:47:13.749Z,99178.66
2023-04-19T14:49:41.445Z,99185.95
2023-04-19T14:52:08.138Z,99185.14
2023-04-19T14:54:34.764Z,99182.37
2023-04-19T14:57:02.404Z,99180.23
2023-04-19T14:59:29.925Z,99179.88
2023-04-19T15:01:56.824Z,99188.13
2023-04-19T15:04:24.016Z,99178.44
2023-04-19T15:06:51.088Z,99182.58
2023-04-19T15:09:18.185Z,99186.92
2023-04-19T15:11:45.264Z,99185.04
2023-04-19T15:14:11.868Z,99185.48
2023-04-19T15:16:38.765Z,99184.20
2023-04-19T15:19:06.865Z,99186.30
2023-04-19T15:21:34.147Z,99184.39
2023-04-19T15:24:00.927Z,99184.75
2023-04-19T15:26:27.588Z,99181.71
2023-04-19T15:28:55.204Z,99181.83
2023-04-19T15:31:21.972Z,99179.79
2023-04-19T15:33:48.724Z,99181.85
2023-04-19T15:36:15.716Z,99179.59
2023-04-19T15:38:43.937Z,99177.94
2023-04-19T15:41:10.839Z,99172.41
2023-04-19T15:43:37.520Z,99175.49
2023-04-19T15:46:04.310Z,99173.52
2023-04-19T15:48:31.312Z,99176.81
2023-04-19T15:50:58.511Z,99174.95
2023-04-19T15:53:25.417Z,99175.48
2023-04-19T15:55:52.892Z,99169.86
2023-04-19T15:58:20.494Z,99171.24
2023-04-19T16:00:47.097Z,99168.96
2023-04-19T16:03:13.995Z,99169.90
2023-04-19T16:05:40.874Z,99170.08
2023-04-19T16:08:08.550Z,99165.70
2023-04-19T16:10:36.372Z,99169.73
2023-04-19T16:13:04.268Z,99170.52
2023-04-19T16:15:31.442Z,99172.30
2023-04-19T16:17:58.108Z,99172.52
2023-04-19T16:20:24.776Z,99171.81
2023-04-19T16:22:51.523Z,99170.16
2023-04-19T16:25:18.259Z,99177.44
2023-04-19T16:27:45.556Z,99175.02
2023-04-19T16:30:12.896Z,99175.22
2023-04-19T16:32:40.748Z,99173.08
2023-04-19T16:35:07.655Z,99174.94
2023-04-19T16:37:34.714Z,99175.35
2023-04-19T16:40:06.386Z,99178.62
2023-04-19T16:42:34.009Z,99179.58
2023-04-19T16:45:00.904Z,99184.04
2023-04-19T16:47:29.598Z,99181.63
2023-04-19T16:49:57.255Z,99187.27
2023-04-19T16:52:25.065Z,99188.05
2023-04-19T16:54:51.869Z,99187.24
2023-04-19T16:57:18.586Z,99192.45
2023-04-19T16:59:45.383Z,99193.98
2023-04-19T17:02:12.475Z,99197.84
2023-04-19T17:04:39.669Z,99198.85
2023-04-19T17:07:08.008Z,99202.64
2023-04-19T17:09:35.728Z,99206.33
2023-04-19T17:12:02.630Z,99207.49
2023-04-19T17:14:29.398Z,99209.36
2023-04-19T17:16:56.143Z,99214.63
2023-04-19T17:19:22.795Z,99218.04
2023-04-19T17:21:49.356Z,99222.79
2023-04-19T17:24:16.017Z,99223.41
2023-04-19T17:26:42.634Z,99225.59
2023-04-19T17:29:09.479Z,99226.30
2023-04-19T17:31:36.545Z,99224.44
2023-04-19T17:34:03.272Z,99228.98
2023-04-19T17:36:31.057Z,99228.43
2023-04-19T17:38:57.738Z,99235.91
2023-04-19T17:41:24.338Z,99242.65
2023-04-19T17:43:51.430Z,99244.40
2023-04-19T17:46:18.710Z,99247.35
2023-04-19T17:48:45.922Z,99247.86
2023-04-19T17:51:12.537Z,99248.13
2023-04-19T17:53:39.213Z,99252.80
2023-04-19T17:56:05.827Z,99251.77
2023-04-19T17:58:35.088Z,99253.71
2023-04-19T18:01:02.895Z,99260.92
2023-04-19T18:03:30.372Z,99261.28
2023-04-19T18:05:57.192Z,99261.52
2023-04-19T18:08:24.132Z,99261.84
2023-04-19T18:10:50.823Z,99265.59
2023-04-19T18:13:18.362Z,99267.44
2023-04-19T18:15:45.107Z,99268.89
2023-04-19T18:18:11.797Z,99271.05
2023-04-19T18:20:38.801Z,99271.02
2023-04-19T18:23:05.525Z,99269.16
2023-04-19T18:25:36.079Z,99272.88
2023-04-19T18:28:03.849Z,99274.00
2023-04-19T18:30:30.882Z,99272.80
2023-04-19T18:32:58.395Z,99272.10
2023-04-19T18:35:25.100Z,99271.12
2023-04-19T18:37:51.773Z,99276.17
2023-04-19T18:40:18.796Z,99276.12
2023-04-19T18:42:45.580Z,99277.49
2023-04-19T18:45:12.336Z,99274.97
2023-04-19T18:47:39.059Z,99275.91
2023-04-19T18:50:07.879Z,99275.73
2023-04-19T18:52:38.110Z,99273.71
2023-04-19T18:55:05.534Z,99279.10
2023-04-19T18:57:34.726Z,99280.33
2023-04-19T19:00:04.707Z,99280.88
2023-04-19T19:02:33.724Z,99280.36
2023-04-19T19:05:02.368Z,99278.35
2023-04-19T19:10:01.580Z,99283.04
2023-04-19T19:12:29.308Z,99283.67
2023-04-19T19:14:56.152Z,99287.21
2023-04-19T19:17:27.930Z,99288.21
2023-04-19T19:19:55.143Z,99285.39
2023-04-19T19:22:28.390Z,99290.91
2023-04-19T19:24:57.024Z,99285.07
2023-04-19T19:27:23.880Z,99284.73
2023-04-19T19:29:50.418Z,99284.04
2023-04-19T19:32:18.611Z,99281.39
2023-04-19T19:34:54.773Z,99277.45
2023-04-19T19:37:22.980Z,99274.46
2023-04-19T19:39:49.862Z,99277.71
2023-04-19T19:42:17.182Z,99278.29
2023-04-19T19:44:43.917Z,99274.83
2023-04-19T19:47:11.156Z,99271.64
2023-04-19T19:52:07.753Z,99268.08
2023-04-19T19:54:34.697Z,99267.90
2023-04-19T19:59:34.648Z,99266.13
2023-04-19T20:02:02.915Z,99262.98
2023-04-19T20:04:31.121Z,99261.56
2023-04-19T20:07:28.767Z,99262.49
2023-04-19T20:09:45.061Z,99263.46
2023-04-19T20:12:12.837Z,99264.34
2023-04-19T20:14:39.789Z,99261.48
2023-04-19T20:17:06.591Z,99262.31
2023-04-19T20:19:33.398Z,99263.89
2023-04-19T20:22:00.059Z,99262.91
2023-04-19T20:24:26.985Z,99258.74
2023-04-19T20:26:54.051Z,99260.58
2023-04-19T20:29:20.872Z,99260.09
2023-04-19T20:31:47.635Z,99254.02
2023-04-19T20:34:14.355Z,99259.46
2023-04-19T20:36:41.065Z,99257.32
2023-04-19T20:39:12.507Z,99260.61
2023-04-19T20:41:40.043Z,99262.20
2023-04-19T20:44:06.989Z,99258.49
2023-04-19T20:46:33.997Z,99257.18
2023-04-19T20:49:00.653Z,99254.44
2023-04-19T20:51:27.229Z,99254.08
2023-04-19T20:53:53.827Z,99253.64
2023-04-19T20:56:20.998Z,99248.29
2023-04-19T20:58:48.026Z,99249.48
2023-04-19T21:01:16.758Z,99245.28
2023-04-19T21:03:43.748Z,99241.37
2023-04-19T21:06:11.001Z,99243.12
2023-04-19T21:08:38.043Z,99241.72
2023-04-19T21:11:04.736Z,99241.14
2023-04-19T21:13:32.722Z,99239.34
2023-04-19T21:15:59.655Z,99235.80
2023-04-19T21:18:29.126Z,99239.90
2023-04-19T21:20:56.673Z,99233.09
2023-04-19T21:23:23.520Z,99234.06
2023-04-19T21:25:50.173Z,99240.04
2023-04-19T21:28:16.795Z,99236.70
2023-04-19T21:30:43.514Z,99238.82
2023-04-19T21:33:10.248Z,99238.23
2023-04-19T21:35:36.900Z,99234.30
2023-04-19T21:38:03.545Z,99228.08
2023-04-19T21:40:30.224Z,99232.82
2023-04-19T21:42:56.886Z,99224.74
2023-04-19T21:45:23.636Z,99223.56
2023-04-19T21:47:50.697Z,99219.19
2023-04-19T21:50:17.375Z,99218.80
2023-04-19T21:52:44.271Z,99220.42
2023-04-19T21:55:10.916Z,99219.28
2023-04-19T21:57:37.902Z,99215.52
2023-04-19T22:00:05.937Z,99210.88
2023-04-19T22:02:33.689Z,99209.44
2023-04-19T22:05:00.609Z,99207.58
2023-04-19T22:07:29.683Z,99210.01
2023-04-19T22:09:57.422Z,99201.96
2023-04-19T22:12:24.208Z,99202.46
2023-04-19T22:14:51.388Z,99197.95
2023-04-19T22:17:18.085Z,99191.23
2023-04-19T22:19:45.427Z,99193.02
2023-04-19T22:22:12.086Z,99188.13
2023-04-19T22:24:50.030Z,99185.79
2023-04-19T22:27:24.037Z,99186.86
2023-04-19T22:29:50.655Z,99182.13
2023-04-19T22:32:17.312Z,99179.68
2023-04-19T22:34:44.026Z,99180.70
2023-04-19T22:37:11.033Z,99176.59
2023-04-19T22:39:37.676Z,99172.54
2023-04-19T22:42:04.430Z,99169.42
2023-04-19T22:44:31.292Z,99169.27
2023-04-19T22:46:59.077Z,99165.80
2023-04-19T22:49:25.703Z,99169.45
2023-04-19T22:51:54.231Z,99167.17
2023-04-19T22:54:20.802Z,99162.77
2023-04-19T22:56:47.418Z,99160.62
2023-04-19T22:59:14.023Z,99158.48
2023-04-19T23:01:40.768Z,99161.58
2023-04-19T23:04:07.451Z,99154.33
2023-04-19T23:06:36.280Z,99156.00
2023-04-19T23:09:02.985Z,99152.83
2023-04-19T23:11:29.740Z,99147.89
2023-04-19T23:13:56.705Z,99149.31
2023-04-19T23:16:23.909Z,99145.50
2023-04-19T23:18:51.575Z,99146.77
2023-04-19T23:21:18.238Z,99140.40
2023-04-19T23:23:45.183Z,99136.36
2023-04-19T23:26:11.831Z,99136.35
2023-04-19T23:28:38.426Z,99137.40
2023-04-19T23:31:05.150Z,99141.06
2023-04-19T23:33:32.590Z,99136.93
2023-04-19T23:35:59.364Z,99137.64
2023-04-19T23:38:26.012Z,99131.10
2023-04-19T23:40:52.675Z,99132.53
2023-04-19T23:43:19.726Z,99133.23
2023-04-19T23:45:46.348Z,99130.75
2023-04-19T23:48:12.992Z,99131.14
2023-04-19T23:50:39.702Z,99131.51
2023-04-19T23:53:06.566Z,99130.23
2023-04-19T23:55:33.281Z,99128.71
2023-04-19T23:57:59.852Z,99127.33
